Maran Gas Agamemnon — SVCH6 — position and weather

sailwx.info

Track history (hours):
 
Tides and Currents Weather Stations Pressure Air Temp Water Temp Dewpoint Dewpoint Depression Visibility Wind Speed Wind Dir Waves Ship Positions

Maran Gas Agamemnon

Last reported at 2018-Feb-11 05:31 UTC. Time now 2018-Feb-20 13:30 UTC.
Position N 34°28' E 139°50'.
Warning: this ship's position is 9 days out of date.

Length 290 m; draft 9.3 m.

Type: Tanker. MMSI: 241405000.

Date/timePositionNaut miles runAvg speedWind from/ knotsBaromVisibWave heightAir tempDewpointWater temp
2018-Feb-11 05:31N 34°28' E 139°50'012.6
2018-Feb-11 05:29N 34°29' E 139°49'1612.8
2018-Feb-11 04:16N 34°43' E 139°43'414.3
2018-Feb-11 03:59N 34°47' E 139°42'815.0
2018-Feb-11 03:29N 34°54' E 139°40'714.2
2018-Feb-11 03:00N 35°01' E 139°39'713.3
2018-Feb-11 02:30N 35°06' E 139°45'611.5
2018-Feb-11 02:00N 35°12' E 139°46'510.5
2018-Feb-11 01:30N 35°17' E 139°45'612.2
2018-Feb-11 01:00N 35°23' E 139°42'5 9.4
2018-Feb-11 00:30N 35°24' E 139°48'4 7.8
2018-Feb-11 00:00N 35°21' E 139°49'0 0.3
2018-Feb-10 23:26N 35°21' E 139°49'0 0.0
2018-Feb-10 22:59N 35°21' E 139°49'0 0.0
2018-Feb-10 22:29N 35°21' E 139°49'0 0.0
2018-Feb-10 21:44N 35°21' E 139°49'0 0.0
2018-Feb-10 21:29N 35°21' E 139°49'0 0.0
2018-Feb-10 20:59N 35°21' E 139°49'0 0.0
2018-Feb-10 20:29N 35°21' E 139°49'0 0.0
2018-Feb-10 19:59N 35°21' E 139°49'0 0.0
2018-Feb-10 19:29N 35°21' E 139°49'0 0.0
2018-Feb-10 18:59N 35°21' E 139°49'0 0.0
2018-Feb-10 18:29N 35°21' E 139°49'0 0.0
2018-Feb-10 17:59N 35°21' E 139°49'0 0.0
2018-Feb-10 17:29N 35°21' E 139°49'0 0.0
2018-Feb-10 16:59N 35°21' E 139°49'0 0.0
2018-Feb-10 16:23N 35°21' E 139°49'0 0.0
2018-Feb-10 15:59N 35°21' E 139°49'0 0.0
2018-Feb-10 15:29N 35°21' E 139°49'0 0.0
2018-Feb-10 14:59N 35°21' E 139°49'0 0.0
2018-Feb-10 14:29N 35°21' E 139°49'0 0.0
2018-Feb-10 13:56N 35°21' E 139°49'0 0.0
2018-Feb-10 13:29N 35°21' E 139°49'0 0.0
2018-Feb-10 12:59N 35°21' E 139°49'0 0.0
2018-Feb-10 12:26N 35°21' E 139°49'0 0.0
2018-Feb-10 11:59N 35°21' E 139°49'0 0.0
2018-Feb-10 11:29N 35°21' E 139°49'0 0.0
2018-Feb-10 10:59N 35°21' E 139°49'0 0.0
2018-Feb-10 10:29N 35°21' E 139°49'0 0.0
2018-Feb-10 09:56N 35°21' E 139°49'0 0.0
2018-Feb-10 09:26N 35°21' E 139°49'0 0.0
2018-Feb-10 08:59N 35°21' E 139°49'0 0.0
2018-Feb-10 08:20N 35°21' E 139°49'0 0.0
2018-Feb-10 07:59N 35°21' E 139°49'0 0.0
2018-Feb-10 07:29N 35°21' E 139°49'0 0.0
2018-Feb-10 06:59N 35°21' E 139°49'0 0.0
2018-Feb-10 06:29N 35°21' E 139°49'0 0.0
2018-Feb-10 05:59N 35°21' E 139°49'0 0.0
2018-Feb-10 05:29N 35°21' E 139°49'0 0.0
2018-Feb-10 04:59N 35°21' E 139°49'0 0.0
2018-Feb-10 04:29N 35°21' E 139°49'0 0.0
2018-Feb-10 03:56N 35°21' E 139°49'0 0.0
2018-Feb-10 03:29N 35°21' E 139°49'0 0.0
2018-Feb-10 02:59N 35°21' E 139°49'0 0.0
2018-Feb-10 02:29N 35°21' E 139°49'0 0.0
2018-Feb-10 01:56N 35°21' E 139°49'0 0.0
2018-Feb-10 01:29N 35°21' E 139°49'0 0.0
2018-Feb-10 00:56N 35°21' E 139°49'0 0.0
2018-Feb-10 00:30N 35°21' E 139°49'0 0.7
2018-Feb-10 00:00N 35°21' E 139°49'3 5.5
2018-Feb-09 23:30N 35°23' E 139°47'5 9.0
2018-Feb-09 23:00N 35°20' E 139°44'312.7
2018-Feb-09 22:45N 35°17' E 139°46'312.9
2018-Feb-09 22:30N 35°14' E 139°47'510.4
2018-Feb-09 22:01N 35°09' E 139°46'3 6.9
2018-Feb-09 21:30N 35°05' E 139°45'8 7.7
2018-Feb-09 20:31N 35°00' E 139°38'4310.8
2018-Feb-09 16:31N 34°29' E 139°03'612.2
2018-Feb-09 16:01N 34°23' E 138°59'  
Track history (hours):
 
Tides and Currents Weather Stations Pressure Air Temp Water Temp Dewpoint Dewpoint Depression Visibility Wind Speed Wind Dir Waves Ship Positions

Maran Gas Agamemnon

Last reported at 2018-Feb-11 05:31 UTC. Time now 2018-Feb-20 13:30 UTC.
Position N 34°28' E 139°50'.
Warning: this ship's position is 9 days out of date.

Length 290 m; draft 9.3 m.

Type: Tanker. MMSI: 241405000.

Date/timePositionNaut miles runAvg speedWind from/ knotsBaromVisibWave heightAir tempDewpointWater temp
2018-Feb-11 05:31N 34°28' E 139°50'012.6
2018-Feb-11 05:29N 34°29' E 139°49'1612.8
2018-Feb-11 04:16N 34°43' E 139°43'414.3
2018-Feb-11 03:59N 34°47' E 139°42'815.0
2018-Feb-11 03:29N 34°54' E 139°40'714.2
2018-Feb-11 03:00N 35°01' E 139°39'713.3
2018-Feb-11 02:30N 35°06' E 139°45'611.5
2018-Feb-11 02:00N 35°12' E 139°46'510.5
2018-Feb-11 01:30N 35°17' E 139°45'612.2
2018-Feb-11 01:00N 35°23' E 139°42'5 9.4
2018-Feb-11 00:30N 35°24' E 139°48'4 7.8
2018-Feb-11 00:00N 35°21' E 139°49'0 0.3
2018-Feb-10 23:26N 35°21' E 139°49'0 0.0
2018-Feb-10 22:59N 35°21' E 139°49'0 0.0
2018-Feb-10 22:29N 35°21' E 139°49'0 0.0
2018-Feb-10 21:44N 35°21' E 139°49'0 0.0
2018-Feb-10 21:29N 35°21' E 139°49'0 0.0
2018-Feb-10 20:59N 35°21' E 139°49'0 0.0
2018-Feb-10 20:29N 35°21' E 139°49'0 0.0
2018-Feb-10 19:59N 35°21' E 139°49'0 0.0
2018-Feb-10 19:29N 35°21' E 139°49'0 0.0
2018-Feb-10 18:59N 35°21' E 139°49'0 0.0
2018-Feb-10 18:29N 35°21' E 139°49'0 0.0
2018-Feb-10 17:59N 35°21' E 139°49'0 0.0
2018-Feb-10 17:29N 35°21' E 139°49'0 0.0
2018-Feb-10 16:59N 35°21' E 139°49'0 0.0
2018-Feb-10 16:23N 35°21' E 139°49'0 0.0
2018-Feb-10 15:59N 35°21' E 139°49'0 0.0
2018-Feb-10 15:29N 35°21' E 139°49'0 0.0
2018-Feb-10 14:59N 35°21' E 139°49'0 0.0
2018-Feb-10 14:29N 35°21' E 139°49'0 0.0
2018-Feb-10 13:56N 35°21' E 139°49'0 0.0
2018-Feb-10 13:29N 35°21' E 139°49'0 0.0
2018-Feb-10 12:59N 35°21' E 139°49'0 0.0
2018-Feb-10 12:26N 35°21' E 139°49'0 0.0
2018-Feb-10 11:59N 35°21' E 139°49'0 0.0
2018-Feb-10 11:29N 35°21' E 139°49'0 0.0
2018-Feb-10 10:59N 35°21' E 139°49'0 0.0
2018-Feb-10 10:29N 35°21' E 139°49'0 0.0
2018-Feb-10 09:56N 35°21' E 139°49'0 0.0
2018-Feb-10 09:26N 35°21' E 139°49'0 0.0
2018-Feb-10 08:59N 35°21' E 139°49'0 0.0
2018-Feb-10 08:20N 35°21' E 139°49'0 0.0
2018-Feb-10 07:59N 35°21' E 139°49'0 0.0
2018-Feb-10 07:29N 35°21' E 139°49'0 0.0
2018-Feb-10 06:59N 35°21' E 139°49'0 0.0
2018-Feb-10 06:29N 35°21' E 139°49'0 0.0
2018-Feb-10 05:59N 35°21' E 139°49'0 0.0
2018-Feb-10 05:29N 35°21' E 139°49'0 0.0
2018-Feb-10 04:59N 35°21' E 139°49'0 0.0
2018-Feb-10 04:29N 35°21' E 139°49'0 0.0
2018-Feb-10 03:56N 35°21' E 139°49'0 0.0
2018-Feb-10 03:29N 35°21' E 139°49'0 0.0
2018-Feb-10 02:59N 35°21' E 139°49'0 0.0
2018-Feb-10 02:29N 35°21' E 139°49'0 0.0
2018-Feb-10 01:56N 35°21' E 139°49'0 0.0
2018-Feb-10 01:29N 35°21' E 139°49'0 0.0
2018-Feb-10 00:56N 35°21' E 139°49'0 0.0
2018-Feb-10 00:30N 35°21' E 139°49'0 0.7
2018-Feb-10 00:00N 35°21' E 139°49'3 5.5
2018-Feb-09 23:30N 35°23' E 139°47'5 9.0
2018-Feb-09 23:00N 35°20' E 139°44'312.7
2018-Feb-09 22:45N 35°17' E 139°46'312.9
2018-Feb-09 22:30N 35°14' E 139°47'510.4
2018-Feb-09 22:01N 35°09' E 139°46'3 6.9
2018-Feb-09 21:30N 35°05' E 139°45'8 7.7
2018-Feb-09 20:31N 35°00' E 139°38'4310.8
2018-Feb-09 16:31N 34°29' E 139°03'612.2
2018-Feb-09 16:01N 34°23' E 138°59'  

Dump ship's entire track history